sensor_id;sensor_type;location;lat;lon;timestamp;temperature;humidity
13848;DHT22;6994;49.752;6.094;2022-08-06T00:00:26;16.50;99.90
13848;DHT22;6994;49.752;6.094;2022-08-06T00:02:53;16.40;99.90
13848;DHT22;6994;49.752;6.094;2022-08-06T00:05:20;16.30;99.90
13848;DHT22;6994;49.752;6.094;2022-08-06T00:07:48;16.00;99.90
13848;DHT22;6994;49.752;6.094;2022-08-06T00:10:16;16.00;99.90
13848;DHT22;6994;49.752;6.094;2022-08-06T00:12:44;16.00;99.90
13848;DHT22;6994;49.752;6.094;2022-08-06T00:15:11;16.00;99.90
13848;DHT22;6994;49.752;6.094;2022-08-06T00:17:39;15.90;99.90
13848;DHT22;6994;49.752;6.094;2022-08-06T00:20:06;15.80;99.90
13848;DHT22;6994;49.752;6.094;2022-08-06T00:22:33;15.70;99.90
13848;DHT22;6994;49.752;6.094;2022-08-06T00:25:01;15.60;99.90
13848;DHT22;6994;49.752;6.094;2022-08-06T00:27:29;15.50;99.90
13848;DHT22;6994;49.752;6.094;2022-08-06T00:29:56;15.50;99.90
13848;DHT22;6994;49.752;6.094;2022-08-06T00:32:24;15.50;99.90
13848;DHT22;6994;49.752;6.094;2022-08-06T00:34:51;15.40;99.90
13848;DHT22;6994;49.752;6.094;2022-08-06T00:37:18;15.30;99.90
13848;DHT22;6994;49.752;6.094;2022-08-06T00:39:45;15.30;99.90
13848;DHT22;6994;49.752;6.094;2022-08-06T00:42:12;15.40;99.90
13848;DHT22;6994;49.752;6.094;2022-08-06T00:44:40;15.50;99.90
13848;DHT22;6994;49.752;6.094;2022-08-06T00:47:07;15.40;99.90
13848;DHT22;6994;49.752;6.094;2022-08-06T00:49:34;15.40;99.90
13848;DHT22;6994;49.752;6.094;2022-08-06T00:52:02;15.30;99.90
13848;DHT22;6994;49.752;6.094;2022-08-06T00:54:30;15.20;99.90
13848;DHT22;6994;49.752;6.094;2022-08-06T00:56:58;15.10;99.90
13848;DHT22;6994;49.752;6.094;2022-08-06T00:59:26;15.20;99.90
13848;DHT22;6994;49.752;6.094;2022-08-06T01:01:53;15.20;99.90
13848;DHT22;6994;49.752;6.094;2022-08-06T01:04:20;15.20;99.90
13848;DHT22;6994;49.752;6.094;2022-08-06T01:06:48;15.10;99.90
13848;DHT22;6994;49.752;6.094;2022-08-06T01:09:15;15.30;99.90
13848;DHT22;6994;49.752;6.094;2022-08-06T01:11:42;15.40;99.90
13848;DHT22;6994;49.752;6.094;2022-08-06T01:14:09;15.60;99.90
13848;DHT22;6994;49.752;6.094;2022-08-06T01:16:50;15.70;99.90
13848;DHT22;6994;49.752;6.094;2022-08-06T01:22:07;15.80;99.90
13848;DHT22;6994;49.752;6.094;2022-08-06T01:30:06;15.50;99.90
13848;DHT22;6994;49.752;6.094;2022-08-06T01:32:34;15.50;99.90
13848;DHT22;6994;49.752;6.094;2022-08-06T01:35:02;15.40;99.90
13848;DHT22;6994;49.752;6.094;2022-08-06T01:37:30;15.40;99.90
13848;DHT22;6994;49.752;6.094;2022-08-06T01:39:58;15.30;99.90
13848;DHT22;6994;49.752;6.094;2022-08-06T01:42:23;15.40;99.90
13848;DHT22;6994;49.752;6.094;2022-08-06T01:44:50;15.30;99.90
13848;DHT22;6994;49.752;6.094;2022-08-06T01:47:18;15.30;99.90
13848;DHT22;6994;49.752;6.094;2022-08-06T01:49:48;15.20;99.90
13848;DHT22;6994;49.752;6.094;2022-08-06T01:52:15;15.20;99.90
13848;DHT22;6994;49.752;6.094;2022-08-06T01:54:43;15.10;99.90
13848;DHT22;6994;49.752;6.094;2022-08-06T01:57:10;14.90;99.90
13848;DHT22;6994;49.752;6.094;2022-08-06T01:59:39;14.80;99.90
13848;DHT22;6994;49.752;6.094;2022-08-06T02:02:06;14.80;99.90
13848;DHT22;6994;49.752;6.094;2022-08-06T02:04:37;14.70;99.90
13848;DHT22;6994;49.752;6.094;2022-08-06T02:07:03;14.70;99.90
13848;DHT22;6994;49.752;6.094;2022-08-06T02:09:30;14.70;99.90
13848;DHT22;6994;49.752;6.094;2022-08-06T02:11:59;14.70;99.90
13848;DHT22;6994;49.752;6.094;2022-08-06T02:14:24;14.90;99.90
13848;DHT22;6994;49.752;6.094;2022-08-06T02:16:51;14.90;99.90
13848;DHT22;6994;49.752;6.094;2022-08-06T02:19:19;14.80;99.90
13848;DHT22;6994;49.752;6.094;2022-08-06T02:21:46;14.70;99.90
13848;DHT22;6994;49.752;6.094;2022-08-06T02:24:14;14.50;99.90
13848;DHT22;6994;49.752;6.094;2022-08-06T02:26:41;14.50;99.90
13848;DHT22;6994;49.752;6.094;2022-08-06T02:29:10;14.40;99.90
13848;DHT22;6994;49.752;6.094;2022-08-06T02:31:35;14.40;99.90
13848;DHT22;6994;49.752;6.094;2022-08-06T02:34:03;14.40;99.90
13848;DHT22;6994;49.752;6.094;2022-08-06T02:36:34;14.40;99.90
13848;DHT22;6994;49.752;6.094;2022-08-06T02:39:04;14.40;99.90
13848;DHT22;6994;49.752;6.094;2022-08-06T02:41:38;14.40;99.90
13848;DHT22;6994;49.752;6.094;2022-08-06T02:44:52;14.30;99.90
13848;DHT22;6994;49.752;6.094;2022-08-06T02:46:35;14.20;99.90
13848;DHT22;6994;49.752;6.094;2022-08-06T02:49:01;14.10;99.90
13848;DHT22;6994;49.752;6.094;2022-08-06T02:51:32;14.00;99.90
13848;DHT22;6994;49.752;6.094;2022-08-06T02:56:34;13.90;99.90
13848;DHT22;6994;49.752;6.094;2022-08-06T02:59:01;13.80;99.90
13848;DHT22;6994;49.752;6.094;2022-08-06T03:01:29;13.80;99.90
13848;DHT22;6994;49.752;6.094;2022-08-06T03:03:57;13.80;99.90
13848;DHT22;6994;49.752;6.094;2022-08-06T03:06:24;13.80;99.90
13848;DHT22;6994;49.752;6.094;2022-08-06T03:08:51;13.80;99.90
13848;DHT22;6994;49.752;6.094;2022-08-06T03:11:18;13.80;99.90
13848;DHT22;6994;49.752;6.094;2022-08-06T03:13:45;13.80;99.90
13848;DHT22;6994;49.752;6.094;2022-08-06T03:16:12;13.70;99.90
13848;DHT22;6994;49.752;6.094;2022-08-06T03:18:39;13.70;99.90
13848;DHT22;6994;49.752;6.094;2022-08-06T03:21:06;13.60;99.90
13848;DHT22;6994;49.752;6.094;2022-08-06T03:23:34;13.70;99.90
13848;DHT22;6994;49.752;6.094;2022-08-06T03:26:01;13.70;99.90
13848;DHT22;6994;49.752;6.094;2022-08-06T03:28:28;13.60;99.90
13848;DHT22;6994;49.752;6.094;2022-08-06T03:30:55;13.50;99.90
13848;DHT22;6994;49.752;6.094;2022-08-06T03:33:23;13.40;99.90
13848;DHT22;6994;49.752;6.094;2022-08-06T03:35:51;13.40;99.90
13848;DHT22;6994;49.752;6.094;2022-08-06T03:38:18;13.40;99.90
13848;DHT22;6994;49.752;6.094;2022-08-06T03:40:46;13.30;99.90
13848;DHT22;6994;49.752;6.094;2022-08-06T03:43:14;13.30;99.90
13848;DHT22;6994;49.752;6.094;2022-08-06T03:45:46;13.20;99.90
13848;DHT22;6994;49.752;6.094;2022-08-06T03:48:12;13.20;99.90
13848;DHT22;6994;49.752;6.094;2022-08-06T03:50:40;13.10;99.90
13848;DHT22;6994;49.752;6.094;2022-08-06T03:53:08;13.30;99.90
13848;DHT22;6994;49.752;6.094;2022-08-06T03:55:33;13.20;99.90
13848;DHT22;6994;49.752;6.094;2022-08-06T03:58:04;13.10;99.90
13848;DHT22;6994;49.752;6.094;2022-08-06T04:00:30;13.10;99.90
13848;DHT22;6994;49.752;6.094;2022-08-06T04:02:57;13.00;99.90
13848;DHT22;6994;49.752;6.094;2022-08-06T04:05:26;13.00;99.90
13848;DHT22;6994;49.752;6.094;2022-08-06T04:08:05;13.00;99.90
13848;DHT22;6994;49.752;6.094;2022-08-06T04:10:38;12.90;99.90
13848;DHT22;6994;49.752;6.094;2022-08-06T04:13:06;12.80;99.90
13848;DHT22;6994;49.752;6.094;2022-08-06T04:15:31;12.70;99.90
13848;DHT22;6994;49.752;6.094;2022-08-06T04:17:59;12.50;99.90
13848;DHT22;6994;49.752;6.094;2022-08-06T04:20:26;12.40;99.90
13848;DHT22;6994;49.752;6.094;2022-08-06T04:22:53;12.30;99.90
13848;DHT22;6994;49.752;6.094;2022-08-06T04:25:21;12.20;99.90
13848;DHT22;6994;49.752;6.094;2022-08-06T04:27:48;12.20;99.90
13848;DHT22;6994;49.752;6.094;2022-08-06T04:30:15;12.20;99.90
13848;DHT22;6994;49.752;6.094;2022-08-06T04:32:43;12.20;99.90
13848;DHT22;6994;49.752;6.094;2022-08-06T04:35:10;12.20;99.90
13848;DHT22;6994;49.752;6.094;2022-08-06T04:37:37;12.20;99.90
13848;DHT22;6994;49.752;6.094;2022-08-06T04:40:05;12.50;99.90
13848;DHT22;6994;49.752;6.094;2022-08-06T04:42:32;12.60;99.90
13848;DHT22;6994;49.752;6.094;2022-08-06T04:44:59;12.90;99.90
13848;DHT22;6994;49.752;6.094;2022-08-06T04:47:28;13.00;99.90
13848;DHT22;6994;49.752;6.094;2022-08-06T04:49:53;12.90;99.90
13848;DHT22;6994;49.752;6.094;2022-08-06T04:52:24;12.80;99.90
13848;DHT22;6994;49.752;6.094;2022-08-06T04:54:50;12.80;99.90
13848;DHT22;6994;49.752;6.094;2022-08-06T04:57:18;12.70;99.90
13848;DHT22;6994;49.752;6.094;2022-08-06T04:59:45;12.70;99.90
13848;DHT22;6994;49.752;6.094;2022-08-06T05:02:12;12.60;99.90
13848;DHT22;6994;49.752;6.094;2022-08-06T05:04:40;12.60;99.90
13848;DHT22;6994;49.752;6.094;2022-08-06T05:09:44;12.60;99.90
13848;DHT22;6994;49.752;6.094;2022-08-06T05:12:31;12.60;99.90
13848;DHT22;6994;49.752;6.094;2022-08-06T05:15:07;12.70;99.90
13848;DHT22;6994;49.752;6.094;2022-08-06T05:17:33;12.70;99.90
13848;DHT22;6994;49.752;6.094;2022-08-06T05:20:11;12.80;99.90
13848;DHT22;6994;49.752;6.094;2022-08-06T05:22:36;12.80;99.90
13848;DHT22;6994;49.752;6.094;2022-08-06T05:25:04;12.80;99.90
13848;DHT22;6994;49.752;6.094;2022-08-06T05:27:31;12.90;99.90
13848;DHT22;6994;49.752;6.094;2022-08-06T05:29:58;12.90;99.90
13848;DHT22;6994;49.752;6.094;2022-08-06T05:32:25;13.00;99.90
13848;DHT22;6994;49.752;6.094;2022-08-06T05:34:52;13.20;99.90
13848;DHT22;6994;49.752;6.094;2022-08-06T05:37:20;13.40;99.90
13848;DHT22;6994;49.752;6.094;2022-08-06T05:39:47;13.50;99.90
13848;DHT22;6994;49.752;6.094;2022-08-06T05:42:14;13.60;99.90
13848;DHT22;6994;49.752;6.094;2022-08-06T05:44:42;13.70;99.90
13848;DHT22;6994;49.752;6.094;2022-08-06T05:47:12;13.80;99.90
13848;DHT22;6994;49.752;6.094;2022-08-06T05:49:42;13.80;99.90
13848;DHT22;6994;49.752;6.094;2022-08-06T05:54:55;13.80;99.90
13848;DHT22;6994;49.752;6.094;2022-08-06T05:57:35;13.80;99.90
13848;DHT22;6994;49.752;6.094;2022-08-06T06:00:01;13.90;99.90
13848;DHT22;6994;49.752;6.094;2022-08-06T06:02:27;13.90;99.90
13848;DHT22;6994;49.752;6.094;2022-08-06T06:04:54;14.00;99.90
13848;DHT22;6994;49.752;6.094;2022-08-06T06:07:22;14.00;99.90
13848;DHT22;6994;49.752;6.094;2022-08-06T06:09:49;14.10;99.90
13848;DHT22;6994;49.752;6.094;2022-08-06T06:12:16;14.10;99.90
13848;DHT22;6994;49.752;6.094;2022-08-06T06:14:44;14.20;99.90
13848;DHT22;6994;49.752;6.094;2022-08-06T06:20:10;14.30;99.90
13848;DHT22;6994;49.752;6.094;2022-08-06T06:22:30;14.40;99.90
13848;DHT22;6994;49.752;6.094;2022-08-06T06:25:11;14.40;99.90
13848;DHT22;6994;49.752;6.094;2022-08-06T06:27:47;14.70;99.90
13848;DHT22;6994;49.752;6.094;2022-08-06T06:30:22;14.80;99.90
13848;DHT22;6994;49.752;6.094;2022-08-06T06:32:52;14.90;99.90
13848;DHT22;6994;49.752;6.094;2022-08-06T06:35:33;14.90;99.90
13848;DHT22;6994;49.752;6.094;2022-08-06T06:38:17;14.90;99.90
13848;DHT22;6994;49.752;6.094;2022-08-06T06:43:40;15.30;99.90
13848;DHT22;6994;49.752;6.094;2022-08-06T06:46:09;15.50;99.90
13848;DHT22;6994;49.752;6.094;2022-08-06T06:48:41;15.60;99.90
13848;DHT22;6994;49.752;6.094;2022-08-06T06:51:07;15.60;99.90
13848;DHT22;6994;49.752;6.094;2022-08-06T06:53:34;15.60;99.90
13848;DHT22;6994;49.752;6.094;2022-08-06T06:56:00;15.60;99.90
13848;DHT22;6994;49.752;6.094;2022-08-06T06:58:31;15.60;99.90
13848;DHT22;6994;49.752;6.094;2022-08-06T07:00:55;15.80;99.90
13848;DHT22;6994;49.752;6.094;2022-08-06T07:03:22;16.00;99.90
13848;DHT22;6994;49.752;6.094;2022-08-06T07:05:49;16.00;99.90
13848;DHT22;6994;49.752;6.094;2022-08-06T07:08:18;16.00;99.90
13848;DHT22;6994;49.752;6.094;2022-08-06T07:10:43;16.20;99.90
13848;DHT22;6994;49.752;6.094;2022-08-06T07:13:11;16.30;99.90
13848;DHT22;6994;49.752;6.094;2022-08-06T07:15:39;16.40;99.90
13848;DHT22;6994;49.752;6.094;2022-08-06T07:18:07;16.40;99.90
13848;DHT22;6994;49.752;6.094;2022-08-06T07:20:34;16.40;99.90
13848;DHT22;6994;49.752;6.094;2022-08-06T07:23:03;16.50;99.90
13848;DHT22;6994;49.752;6.094;2022-08-06T07:25:28;16.50;99.90
13848;DHT22;6994;49.752;6.094;2022-08-06T07:27:55;16.60;99.90
13848;DHT22;6994;49.752;6.094;2022-08-06T07:30:22;16.60;99.90
13848;DHT22;6994;49.752;6.094;2022-08-06T07:32:50;16.90;99.90
13848;DHT22;6994;49.752;6.094;2022-08-06T07:35:17;17.00;99.90
13848;DHT22;6994;49.752;6.094;2022-08-06T07:37:56;17.00;99.90
13848;DHT22;6994;49.752;6.094;2022-08-06T07:40:25;17.10;99.90
13848;DHT22;6994;49.752;6.094;2022-08-06T07:43:02;17.40;99.90
13848;DHT22;6994;49.752;6.094;2022-08-06T07:45:18;17.50;99.90
13848;DHT22;6994;49.752;6.094;2022-08-06T07:47:45;17.70;99.90
13848;DHT22;6994;49.752;6.094;2022-08-06T07:50:13;17.80;99.90
13848;DHT22;6994;49.752;6.094;2022-08-06T07:52:39;18.00;99.90
13848;DHT22;6994;49.752;6.094;2022-08-06T07:55:07;18.00;99.90
13848;DHT22;6994;49.752;6.094;2022-08-06T07:57:34;18.00;99.90
13848;DHT22;6994;49.752;6.094;2022-08-06T08:00:01;17.90;99.90
13848;DHT22;6994;49.752;6.094;2022-08-06T08:02:28;17.90;99.90
13848;DHT22;6994;49.752;6.094;2022-08-06T08:04:56;17.90;99.90
13848;DHT22;6994;49.752;6.094;2022-08-06T08:07:41;17.90;99.90
13848;DHT22;6994;49.752;6.094;2022-08-06T08:10:08;17.90;99.90
13848;DHT22;6994;49.752;6.094;2022-08-06T08:12:36;17.90;99.90
13848;DHT22;6994;49.752;6.094;2022-08-06T08:15:06;18.00;99.90
13848;DHT22;6994;49.752;6.094;2022-08-06T08:17:33;18.00;99.90
13848;DHT22;6994;49.752;6.094;2022-08-06T08:20:07;18.10;99.90
13848;DHT22;6994;49.752;6.094;2022-08-06T08:22:34;18.10;99.90
13848;DHT22;6994;49.752;6.094;2022-08-06T08:25:01;18.20;99.90
13848;DHT22;6994;49.752;6.094;2022-08-06T08:27:28;18.20;99.90
13848;DHT22;6994;49.752;6.094;2022-08-06T08:29:56;18.30;99.90
13848;DHT22;6994;49.752;6.094;2022-08-06T08:32:23;18.40;99.90
13848;DHT22;6994;49.752;6.094;2022-08-06T08:34:50;18.40;99.90
13848;DHT22;6994;49.752;6.094;2022-08-06T08:37:17;18.70;99.90
13848;DHT22;6994;49.752;6.094;2022-08-06T08:39:45;18.80;99.90
13848;DHT22;6994;49.752;6.094;2022-08-06T08:42:17;18.80;99.90
13848;DHT22;6994;49.752;6.094;2022-08-06T08:44:42;18.80;99.90
13848;DHT22;6994;49.752;6.094;2022-08-06T08:47:09;18.90;99.90
13848;DHT22;6994;49.752;6.094;2022-08-06T08:49:52;19.00;99.90
13848;DHT22;6994;49.752;6.094;2022-08-06T08:52:21;19.10;99.90
13848;DHT22;6994;49.752;6.094;2022-08-06T08:54:46;19.10;99.90
13848;DHT22;6994;49.752;6.094;2022-08-06T08:57:13;19.10;99.90
13848;DHT22;6994;49.752;6.094;2022-08-06T08:59:40;19.20;99.90
13848;DHT22;6994;49.752;6.094;2022-08-06T09:02:07;19.20;99.90
13848;DHT22;6994;49.752;6.094;2022-08-06T09:04:34;19.20;99.90
13848;DHT22;6994;49.752;6.094;2022-08-06T09:07:02;19.20;99.90
13848;DHT22;6994;49.752;6.094;2022-08-06T09:09:28;19.30;99.90
13848;DHT22;6994;49.752;6.094;2022-08-06T09:11:56;19.40;99.90
13848;DHT22;6994;49.752;6.094;2022-08-06T09:14:23;19.60;99.20
13848;DHT22;6994;49.752;6.094;2022-08-06T09:16:50;19.70;99.20
13848;DHT22;6994;49.752;6.094;2022-08-06T09:19:17;20.00;99.70
13848;DHT22;6994;49.752;6.094;2022-08-06T09:21:45;20.20;98.20
13848;DHT22;6994;49.752;6.094;2022-08-06T09:24:12;20.30;97.50
13848;DHT22;6994;49.752;6.094;2022-08-06T09:26:40;20.40;97.20
13848;DHT22;6994;49.752;6.094;2022-08-06T09:29:21;20.50;96.10
13848;DHT22;6994;49.752;6.094;2022-08-06T09:31:48;20.40;95.90
13848;DHT22;6994;49.752;6.094;2022-08-06T09:34:15;20.30;96.20
13848;DHT22;6994;49.752;6.094;2022-08-06T09:36:44;20.20;95.80
13848;DHT22;6994;49.752;6.094;2022-08-06T09:39:11;20.20;96.10
13848;DHT22;6994;49.752;6.094;2022-08-06T09:41:48;20.20;95.80
13848;DHT22;6994;49.752;6.094;2022-08-06T09:44:15;20.20;95.80
13848;DHT22;6994;49.752;6.094;2022-08-06T09:46:42;20.20;95.10
13848;DHT22;6994;49.752;6.094;2022-08-06T09:49:10;20.20;95.60
13848;DHT22;6994;49.752;6.094;2022-08-06T09:51:37;20.30;95.50
13848;DHT22;6994;49.752;6.094;2022-08-06T09:54:04;20.60;95.50
13848;DHT22;6994;49.752;6.094;2022-08-06T09:56:31;21.00;93.30
13848;DHT22;6994;49.752;6.094;2022-08-06T09:59:05;21.30;92.60
13848;DHT22;6994;49.752;6.094;2022-08-06T10:01:41;21.60;92.00
13848;DHT22;6994;49.752;6.094;2022-08-06T10:04:04;21.90;92.50
13848;DHT22;6994;49.752;6.094;2022-08-06T10:06:31;22.30;91.10
13848;DHT22;6994;49.752;6.094;2022-08-06T10:09:08;22.70;87.90
13848;DHT22;6994;49.752;6.094;2022-08-06T10:11:40;22.60;88.50
13848;DHT22;6994;49.752;6.094;2022-08-06T10:14:04;22.50;88.40
13848;DHT22;6994;49.752;6.094;2022-08-06T10:16:31;22.30;87.60
13848;DHT22;6994;49.752;6.094;2022-08-06T10:18:59;22.20;87.20
13848;DHT22;6994;49.752;6.094;2022-08-06T10:21:27;22.20;87.60
13848;DHT22;6994;49.752;6.094;2022-08-06T10:23:54;22.20;85.70
13848;DHT22;6994;49.752;6.094;2022-08-06T10:26:27;22.20;83.40
13848;DHT22;6994;49.752;6.094;2022-08-06T10:28:51;22.20;83.20
13848;DHT22;6994;49.752;6.094;2022-08-06T10:31:18;22.30;84.40
13848;DHT22;6994;49.752;6.094;2022-08-06T10:33:52;22.50;84.80
13848;DHT22;6994;49.752;6.094;2022-08-06T10:36:19;22.90;84.40
13848;DHT22;6994;49.752;6.094;2022-08-06T10:38:49;23.10;76.80
13848;DHT22;6994;49.752;6.094;2022-08-06T10:41:14;23.10;74.80
13848;DHT22;6994;49.752;6.094;2022-08-06T10:43:42;23.00;74.70
13848;DHT22;6994;49.752;6.094;2022-08-06T10:46:10;23.00;77.40
13848;DHT22;6994;49.752;6.094;2022-08-06T10:48:37;23.00;77.80
13848;DHT22;6994;49.752;6.094;2022-08-06T10:51:05;23.10;78.70
13848;DHT22;6994;49.752;6.094;2022-08-06T10:53:31;23.30;78.20
13848;DHT22;6994;49.752;6.094;2022-08-06T10:55:59;23.40;76.80
13848;DHT22;6994;49.752;6.094;2022-08-06T10:58:25;23.60;78.90
13848;DHT22;6994;49.752;6.094;2022-08-06T11:00:52;24.10;69.80
13848;DHT22;6994;49.752;6.094;2022-08-06T11:03:37;24.50;72.20
13848;DHT22;6994;49.752;6.094;2022-08-06T11:08:52;25.30;69.80
13848;DHT22;6994;49.752;6.094;2022-08-06T11:11:28;25.30;69.70
13848;DHT22;6994;49.752;6.094;2022-08-06T11:14:05;25.40;67.50
13848;DHT22;6994;49.752;6.094;2022-08-06T11:16:30;25.50;68.10
13848;DHT22;6994;49.752;6.094;2022-08-06T11:21:40;25.70;64.70
13848;DHT22;6994;49.752;6.094;2022-08-06T11:24:06;25.80;66.60
13848;DHT22;6994;49.752;6.094;2022-08-06T11:26:35;26.00;61.40
13848;DHT22;6994;49.752;6.094;2022-08-06T11:29:02;26.10;62.00
13848;DHT22;6994;49.752;6.094;2022-08-06T11:31:34;26.50;63.90
13848;DHT22;6994;49.752;6.094;2022-08-06T11:34:07;26.40;63.80
13848;DHT22;6994;49.752;6.094;2022-08-06T11:36:46;27.10;62.80
13848;DHT22;6994;49.752;6.094;2022-08-06T11:39:09;28.00;61.70
13848;DHT22;6994;49.752;6.094;2022-08-06T11:41:46;28.90;58.30
13848;DHT22;6994;49.752;6.094;2022-08-06T11:44:12;29.80;58.10
13848;DHT22;6994;49.752;6.094;2022-08-06T11:46:40;32.30;50.90
13848;DHT22;6994;49.752;6.094;2022-08-06T11:49:21;32.20;50.70
13848;DHT22;6994;49.752;6.094;2022-08-06T11:59:26;33.90;45.20
13848;DHT22;6994;49.752;6.094;2022-08-06T12:01:53;34.30;43.40
13848;DHT22;6994;49.752;6.094;2022-08-06T12:07:18;34.90;42.30
13848;DHT22;6994;49.752;6.094;2022-08-06T12:09:45;35.20;41.80
13848;DHT22;6994;49.752;6.094;2022-08-06T12:14:57;36.60;38.50
13848;DHT22;6994;49.752;6.094;2022-08-06T12:17:24;36.40;39.50
13848;DHT22;6994;49.752;6.094;2022-08-06T12:19:51;36.40;39.60
13848;DHT22;6994;49.752;6.094;2022-08-06T12:22:19;36.40;37.10
13848;DHT22;6994;49.752;6.094;2022-08-06T12:24:48;35.90;38.40
13848;DHT22;6994;49.752;6.094;2022-08-06T12:27:14;35.90;38.10
13848;DHT22;6994;49.752;6.094;2022-08-06T12:29:42;35.70;38.00
13848;DHT22;6994;49.752;6.094;2022-08-06T12:32:26;35.70;38.40
13848;DHT22;6994;49.752;6.094;2022-08-06T12:34:53;35.70;38.30
13848;DHT22;6994;49.752;6.094;2022-08-06T12:37:19;35.70;37.60
13848;DHT22;6994;49.752;6.094;2022-08-06T12:39:47;35.40;38.00
13848;DHT22;6994;49.752;6.094;2022-08-06T12:42:32;35.30;37.80
13848;DHT22;6994;49.752;6.094;2022-08-06T12:44:59;36.10;37.50
13848;DHT22;6994;49.752;6.094;2022-08-06T12:47:27;35.80;36.10
13848;DHT22;6994;49.752;6.094;2022-08-06T12:49:54;35.50;37.30
13848;DHT22;6994;49.752;6.094;2022-08-06T12:52:21;35.40;37.80
13848;DHT22;6994;49.752;6.094;2022-08-06T12:54:48;35.40;38.10
13848;DHT22;6994;49.752;6.094;2022-08-06T12:57:19;35.50;38.50
13848;DHT22;6994;49.752;6.094;2022-08-06T12:59:47;36.00;37.00
13848;DHT22;6994;49.752;6.094;2022-08-06T13:02:14;36.20;36.30
13848;DHT22;6994;49.752;6.094;2022-08-06T13:04:43;37.30;33.40
13848;DHT22;6994;49.752;6.094;2022-08-06T13:07:09;37.30;33.40
13848;DHT22;6994;49.752;6.094;2022-08-06T13:09:36;37.10;33.90
13848;DHT22;6994;49.752;6.094;2022-08-06T13:12:19;37.10;34.00
13848;DHT22;6994;49.752;6.094;2022-08-06T13:14:56;38.20;33.00
13848;DHT22;6994;49.752;6.094;2022-08-06T13:17:25;38.20;34.20
13848;DHT22;6994;49.752;6.094;2022-08-06T13:19:52;38.30;33.70
13848;DHT22;6994;49.752;6.094;2022-08-06T13:22:19;38.40;32.80
13848;DHT22;6994;49.752;6.094;2022-08-06T13:24:46;39.80;31.80
13848;DHT22;6994;49.752;6.094;2022-08-06T13:27:14;39.80;32.00
13848;DHT22;6994;49.752;6.094;2022-08-06T13:30:00;39.60;32.00
13848;DHT22;6994;49.752;6.094;2022-08-06T13:32:27;39.60;32.00
13848;DHT22;6994;49.752;6.094;2022-08-06T13:34:55;39.70;32.20
13848;DHT22;6994;49.752;6.094;2022-08-06T13:37:47;39.80;31.70
13848;DHT22;6994;49.752;6.094;2022-08-06T13:40:13;39.60;30.70
13848;DHT22;6994;49.752;6.094;2022-08-06T13:45:20;39.40;30.80
13848;DHT22;6994;49.752;6.094;2022-08-06T13:47:46;40.40;29.70
13848;DHT22;6994;49.752;6.094;2022-08-06T13:50:13;40.10;30.20
13848;DHT22;6994;49.752;6.094;2022-08-06T13:52:40;40.00;30.70
13848;DHT22;6994;49.752;6.094;2022-08-06T13:55:08;39.80;30.60
13848;DHT22;6994;49.752;6.094;2022-08-06T13:57:35;39.80;30.70
13848;DHT22;6994;49.752;6.094;2022-08-06T14:00:05;39.70;30.10
13848;DHT22;6994;49.752;6.094;2022-08-06T14:02:35;39.60;29.70
13848;DHT22;6994;49.752;6.094;2022-08-06T14:05:03;39.40;30.00
13848;DHT22;6994;49.752;6.094;2022-08-06T14:07:30;39.30;30.70
13848;DHT22;6994;49.752;6.094;2022-08-06T14:09:58;39.10;30.00
13848;DHT22;6994;49.752;6.094;2022-08-06T14:12:26;39.20;30.00
13848;DHT22;6994;49.752;6.094;2022-08-06T14:14:53;39.20;30.00
13848;DHT22;6994;49.752;6.094;2022-08-06T14:17:20;39.50;30.00
13848;DHT22;6994;49.752;6.094;2022-08-06T14:19:47;39.70;30.10
13848;DHT22;6994;49.752;6.094;2022-08-06T14:22:15;40.70;28.90
13848;DHT22;6994;49.752;6.094;2022-08-06T14:24:42;40.30;29.50
13848;DHT22;6994;49.752;6.094;2022-08-06T14:27:09;40.10;29.10
13848;DHT22;6994;49.752;6.094;2022-08-06T14:29:36;40.00;30.00
13848;DHT22;6994;49.752;6.094;2022-08-06T14:32:05;39.90;29.50
13848;DHT22;6994;49.752;6.094;2022-08-06T14:34:32;39.60;29.30
13848;DHT22;6994;49.752;6.094;2022-08-06T14:37:00;38.30;30.30
13848;DHT22;6994;49.752;6.094;2022-08-06T14:39:27;38.00;30.80
13848;DHT22;6994;49.752;6.094;2022-08-06T14:41:55;37.90;30.70
13848;DHT22;6994;49.752;6.094;2022-08-06T14:44:40;37.80;30.80
13848;DHT22;6994;49.752;6.094;2022-08-06T14:47:22;37.40;29.80
13848;DHT22;6994;49.752;6.094;2022-08-06T14:49:49;37.10;30.90
13848;DHT22;6994;49.752;6.094;2022-08-06T14:52:16;37.70;30.80
13848;DHT22;6994;49.752;6.094;2022-08-06T14:54:44;37.40;31.50
13848;DHT22;6994;49.752;6.094;2022-08-06T14:57:12;36.90;31.40
13848;DHT22;6994;49.752;6.094;2022-08-06T14:59:40;36.70;31.40
13848;DHT22;6994;49.752;6.094;2022-08-06T15:02:08;36.50;32.10
13848;DHT22;6994;49.752;6.094;2022-08-06T15:04:35;36.50;32.00
13848;DHT22;6994;49.752;6.094;2022-08-06T15:07:02;36.40;31.50
13848;DHT22;6994;49.752;6.094;2022-08-06T15:09:29;36.10;32.10
13848;DHT22;6994;49.752;6.094;2022-08-06T15:11:56;35.80;32.60
13848;DHT22;6994;49.752;6.094;2022-08-06T15:14:24;35.40;31.70
13848;DHT22;6994;49.752;6.094;2022-08-06T15:16:51;35.00;32.70
13848;DHT22;6994;49.752;6.094;2022-08-06T15:19:18;34.60;33.80
13848;DHT22;6994;49.752;6.094;2022-08-06T15:21:45;34.20;32.60
13848;DHT22;6994;49.752;6.094;2022-08-06T15:24:12;33.80;34.70
13848;DHT22;6994;49.752;6.094;2022-08-06T15:26:40;33.40;33.80
13848;DHT22;6994;49.752;6.094;2022-08-06T15:29:07;32.90;34.70
13848;DHT22;6994;49.752;6.094;2022-08-06T15:31:34;32.60;35.30
13848;DHT22;6994;49.752;6.094;2022-08-06T15:34:01;32.50;34.60
13848;DHT22;6994;49.752;6.094;2022-08-06T15:36:28;32.00;35.90
13848;DHT22;6994;49.752;6.094;2022-08-06T15:38:56;31.60;36.30
13848;DHT22;6994;49.752;6.094;2022-08-06T15:41:23;31.40;36.50
13848;DHT22;6994;49.752;6.094;2022-08-06T15:43:50;31.20;35.70
13848;DHT22;6994;49.752;6.094;2022-08-06T15:46:17;31.10;37.00
13848;DHT22;6994;49.752;6.094;2022-08-06T15:48:45;30.60;37.20
13848;DHT22;6994;49.752;6.094;2022-08-06T15:51:13;30.60;37.20
13848;DHT22;6994;49.752;6.094;2022-08-06T15:53:40;30.30;37.90
13848;DHT22;6994;49.752;6.094;2022-08-06T15:56:08;29.70;39.30
13848;DHT22;6994;49.752;6.094;2022-08-06T15:58:35;29.70;39.20
13848;DHT22;6994;49.752;6.094;2022-08-06T16:01:02;29.40;39.70
13848;DHT22;6994;49.752;6.094;2022-08-06T16:03:29;29.30;40.00
13848;DHT22;6994;49.752;6.094;2022-08-06T16:05:56;29.10;40.90
13848;DHT22;6994;49.752;6.094;2022-08-06T16:08:24;29.10;40.70
13848;DHT22;6994;49.752;6.094;2022-08-06T16:10:51;29.30;40.00
13848;DHT22;6994;49.752;6.094;2022-08-06T16:13:18;29.30;40.20
13848;DHT22;6994;49.752;6.094;2022-08-06T16:15:46;29.30;39.90
13848;DHT22;6994;49.752;6.094;2022-08-06T16:18:12;29.30;39.90
13848;DHT22;6994;49.752;6.094;2022-08-06T16:20:41;29.30;39.60
13848;DHT22;6994;49.752;6.094;2022-08-06T16:23:09;29.20;40.20
13848;DHT22;6994;49.752;6.094;2022-08-06T16:25:36;29.10;40.60
13848;DHT22;6994;49.752;6.094;2022-08-06T16:28:04;29.00;40.50
13848;DHT22;6994;49.752;6.094;2022-08-06T16:30:31;29.00;40.90
13848;DHT22;6994;49.752;6.094;2022-08-06T16:32:59;29.00;41.00
13848;DHT22;6994;49.752;6.094;2022-08-06T16:35:26;29.00;41.10